sensor_id;sensor_type;location;lat;lon;timestamp;temperature;humidity
61374;DHT22;47242;48.158;-1.586;2023-04-24T04:32:00;12.00;69.40
61374;DHT22;47242;48.158;-1.586;2023-04-24T04:34:26;12.00;69.60
61374;DHT22;47242;48.158;-1.586;2023-04-24T04:36:52;12.00;69.30
61374;DHT22;47242;48.158;-1.586;2023-04-24T04:39:18;12.00;69.50
61374;DHT22;47242;48.158;-1.586;2023-04-24T04:41:44;12.00;69.40
61374;DHT22;47242;48.158;-1.586;2023-04-24T04:44:11;12.00;69.20
61374;DHT22;47242;48.158;-1.586;2023-04-24T04:46:38;12.00;69.20
61374;DHT22;47242;48.158;-1.586;2023-04-24T04:49:04;12.00;69.20
61374;DHT22;47242;48.158;-1.586;2023-04-24T04:51:29;11.90;69.70
61374;DHT22;47242;48.158;-1.586;2023-04-24T04:53:56;11.90;69.60
61374;DHT22;47242;48.158;-1.586;2023-04-24T04:56:22;12.00;69.40
61374;DHT22;47242;48.158;-1.586;2023-04-24T04:58:47;12.00;69.30
61374;DHT22;47242;48.158;-1.586;2023-04-24T05:01:13;12.00;69.20
61374;DHT22;47242;48.158;-1.586;2023-04-24T05:03:39;12.10;69.10
61374;DHT22;47242;48.158;-1.586;2023-04-24T05:06:05;12.10;69.10
61374;DHT22;47242;48.158;-1.586;2023-04-24T05:08:31;12.10;69.10
61374;DHT22;47242;48.158;-1.586;2023-04-24T05:10:57;12.10;69.20
61374;DHT22;47242;48.158;-1.586;2023-04-24T05:13:22;12.10;69.10
61374;DHT22;47242;48.158;-1.586;2023-04-24T05:15:48;12.10;69.30
61374;DHT22;47242;48.158;-1.586;2023-04-24T05:18:14;12.00;69.70
61374;DHT22;47242;48.158;-1.586;2023-04-24T05:20:40;12.00;69.70
61374;DHT22;47242;48.158;-1.586;2023-04-24T05:23:08;12.00;69.80
61374;DHT22;47242;48.158;-1.586;2023-04-24T05:25:33;12.00;69.90
61374;DHT22;47242;48.158;-1.586;2023-04-24T05:28:01;12.00;69.70
61374;DHT22;47242;48.158;-1.586;2023-04-24T05:30:27;12.00;69.90
61374;DHT22;47242;48.158;-1.586;2023-04-24T05:32:52;12.00;70.00
61374;DHT22;47242;48.158;-1.586;2023-04-24T05:35:18;12.00;69.80
61374;DHT22;47242;48.158;-1.586;2023-04-24T05:37:44;12.00;69.80
61374;DHT22;47242;48.158;-1.586;2023-04-24T05:40:10;12.10;69.90
61374;DHT22;47242;48.158;-1.586;2023-04-24T05:42:36;12.10;69.90
61374;DHT22;47242;48.158;-1.586;2023-04-24T05:45:02;12.00;70.10
61374;DHT22;47242;48.158;-1.586;2023-04-24T05:47:28;12.00;69.80
61374;DHT22;47242;48.158;-1.586;2023-04-24T05:49:54;12.10;69.80
61374;DHT22;47242;48.158;-1.586;2023-04-24T05:52:19;12.10;70.00
61374;DHT22;47242;48.158;-1.586;2023-04-24T05:54:45;12.10;69.90
61374;DHT22;47242;48.158;-1.586;2023-04-24T05:57:11;12.10;69.80
61374;DHT22;47242;48.158;-1.586;2023-04-24T05:59:37;12.10;69.70
61374;DHT22;47242;48.158;-1.586;2023-04-24T06:02:04;12.20;69.40
61374;DHT22;47242;48.158;-1.586;2023-04-24T06:04:29;12.20;69.30
61374;DHT22;47242;48.158;-1.586;2023-04-24T06:06:55;12.20;69.20
61374;DHT22;47242;48.158;-1.586;2023-04-24T06:09:25;12.30;69.40
61374;DHT22;47242;48.158;-1.586;2023-04-24T06:11:51;12.30;69.40
61374;DHT22;47242;48.158;-1.586;2023-04-24T06:14:18;12.30;69.30
61374;DHT22;47242;48.158;-1.586;2023-04-24T06:16:44;12.20;69.20
61374;DHT22;47242;48.158;-1.586;2023-04-24T06:19:10;12.20;69.20
61374;DHT22;47242;48.158;-1.586;2023-04-24T06:21:35;12.20;69.50
61374;DHT22;47242;48.158;-1.586;2023-04-24T06:24:01;12.10;69.60
61374;DHT22;47242;48.158;-1.586;2023-04-24T06:26:27;12.10;69.50
61374;DHT22;47242;48.158;-1.586;2023-04-24T06:28:53;12.00;69.90
61374;DHT22;47242;48.158;-1.586;2023-04-24T06:31:20;11.90;70.20
61374;DHT22;47242;48.158;-1.586;2023-04-24T06:33:46;11.90;70.00
61374;DHT22;47242;48.158;-1.586;2023-04-24T06:36:12;11.90;69.90
61374;DHT22;47242;48.158;-1.586;2023-04-24T06:38:38;11.90;70.00
61374;DHT22;47242;48.158;-1.586;2023-04-24T06:41:03;12.00;69.70
61374;DHT22;47242;48.158;-1.586;2023-04-24T06:43:31;12.10;69.50
61374;DHT22;47242;48.158;-1.586;2023-04-24T06:45:57;12.10;69.40
61374;DHT22;47242;48.158;-1.586;2023-04-24T06:48:24;12.20;69.30
61374;DHT22;47242;48.158;-1.586;2023-04-24T06:50:49;12.20;69.50
61374;DHT22;47242;48.158;-1.586;2023-04-24T06:53:15;12.20;69.00
61374;DHT22;47242;48.158;-1.586;2023-04-24T06:55:41;12.30;69.00
61374;DHT22;47242;48.158;-1.586;2023-04-24T06:58:07;12.30;68.90
61374;DHT22;47242;48.158;-1.586;2023-04-24T07:00:33;12.40;68.70
61374;DHT22;47242;48.158;-1.586;2023-04-24T07:02:58;12.60;68.40
61374;DHT22;47242;48.158;-1.586;2023-04-24T07:05:24;12.70;67.70
61374;DHT22;47242;48.158;-1.586;2023-04-24T07:07:50;12.80;67.40
61374;DHT22;47242;48.158;-1.586;2023-04-24T07:10:16;12.90;66.90
61374;DHT22;47242;48.158;-1.586;2023-04-24T07:12:43;13.10;66.60
61374;DHT22;47242;48.158;-1.586;2023-04-24T07:15:09;13.20;66.30
61374;DHT22;47242;48.158;-1.586;2023-04-24T07:17:35;13.20;65.90
61374;DHT22;47242;48.158;-1.586;2023-04-24T07:20:04;13.30;65.40
61374;DHT22;47242;48.158;-1.586;2023-04-24T07:22:30;13.50;65.10
61374;DHT22;47242;48.158;-1.586;2023-04-24T07:24:55;13.70;64.50
61374;DHT22;47242;48.158;-1.586;2023-04-24T07:27:21;13.80;64.10
61374;DHT22;47242;48.158;-1.586;2023-04-24T07:29:47;13.90;63.40
61374;DHT22;47242;48.158;-1.586;2023-04-24T07:32:12;14.20;63.00
61374;DHT22;47242;48.158;-1.586;2023-04-24T07:34:38;14.80;61.60
61374;DHT22;47242;48.158;-1.586;2023-04-24T07:37:04;15.70;59.60
61374;DHT22;47242;48.158;-1.586;2023-04-24T07:39:30;16.30;57.50
61374;DHT22;47242;48.158;-1.586;2023-04-24T07:41:55;17.10;55.10
61374;DHT22;47242;48.158;-1.586;2023-04-24T07:44:21;18.30;53.00
61374;DHT22;47242;48.158;-1.586;2023-04-24T07:46:47;19.80;49.10
61374;DHT22;47242;48.158;-1.586;2023-04-24T07:49:12;22.00;45.00
61374;DHT22;47242;48.158;-1.586;2023-04-24T07:51:38;24.00;40.10
61374;DHT22;47242;48.158;-1.586;2023-04-24T07:54:05;25.50;36.90
61374;DHT22;47242;48.158;-1.586;2023-04-24T07:56:34;26.90;34.70
61374;DHT22;47242;48.158;-1.586;2023-04-24T07:59:00;28.00;33.60
61374;DHT22;47242;48.158;-1.586;2023-04-24T08:01:26;28.60;31.20
61374;DHT22;47242;48.158;-1.586;2023-04-24T08:03:52;29.20;30.60
61374;DHT22;47242;48.158;-1.586;2023-04-24T08:06:18;29.90;30.20
61374;DHT22;47242;48.158;-1.586;2023-04-24T08:08:43;29.30;29.50
61374;DHT22;47242;48.158;-1.586;2023-04-24T08:11:09;27.30;31.30
61374;DHT22;47242;48.158;-1.586;2023-04-24T08:13:35;26.40;33.10
61374;DHT22;47242;48.158;-1.586;2023-04-24T08:16:00;27.60;32.30
61374;DHT22;47242;48.158;-1.586;2023-04-24T08:18:26;28.30;31.70
61374;DHT22;47242;48.158;-1.586;2023-04-24T08:20:52;28.80;30.90
61374;DHT22;47242;48.158;-1.586;2023-04-24T08:23:18;28.20;30.10
61374;DHT22;47242;48.158;-1.586;2023-04-24T08:25:44;26.90;31.70
61374;DHT22;47242;48.158;-1.586;2023-04-24T08:28:09;27.00;32.40
61374;DHT22;47242;48.158;-1.586;2023-04-24T08:30:36;26.60;33.10
61374;DHT22;47242;48.158;-1.586;2023-04-24T08:33:02;25.50;34.80
61374;DHT22;47242;48.158;-1.586;2023-04-24T08:35:28;25.50;34.90
61374;DHT22;47242;48.158;-1.586;2023-04-24T08:37:54;24.40;35.60
61374;DHT22;47242;48.158;-1.586;2023-04-24T08:40:26;23.80;37.50
61374;DHT22;47242;48.158;-1.586;2023-04-24T08:42:54;23.60;38.10
61374;DHT22;47242;48.158;-1.586;2023-04-24T08:45:21;24.80;36.30
61374;DHT22;47242;48.158;-1.586;2023-04-24T08:47:47;25.30;36.40
61374;DHT22;47242;48.158;-1.586;2023-04-24T08:50:14;26.40;34.80
61374;DHT22;47242;48.158;-1.586;2023-04-24T08:52:42;26.20;33.80
61374;DHT22;47242;48.158;-1.586;2023-04-24T08:55:08;26.40;34.30
61374;DHT22;47242;48.158;-1.586;2023-04-24T08:57:35;26.90;32.30
61374;DHT22;47242;48.158;-1.586;2023-04-24T09:00:01;27.00;33.90
61374;DHT22;47242;48.158;-1.586;2023-04-24T09:02:27;27.60;32.70
61374;DHT22;47242;48.158;-1.586;2023-04-24T09:04:55;27.00;32.30
61374;DHT22;47242;48.158;-1.586;2023-04-24T09:07:24;26.00;31.80
61374;DHT22;47242;48.158;-1.586;2023-04-24T09:09:51;24.80;35.30
61374;DHT22;47242;48.158;-1.586;2023-04-24T09:12:17;24.20;35.10
61374;DHT22;47242;48.158;-1.586;2023-04-24T09:14:44;23.50;36.60
61374;DHT22;47242;48.158;-1.586;2023-04-24T09:17:11;22.80;38.20
61374;DHT22;47242;48.158;-1.586;2023-04-24T09:19:37;23.20;37.50
61374;DHT22;47242;48.158;-1.586;2023-04-24T09:22:07;22.80;38.60
61374;DHT22;47242;48.158;-1.586;2023-04-24T09:24:33;23.60;37.40
61374;DHT22;47242;48.158;-1.586;2023-04-24T09:27:01;23.50;37.60
61374;DHT22;47242;48.158;-1.586;2023-04-24T09:29:29;23.70;37.00
61374;DHT22;47242;48.158;-1.586;2023-04-24T09:31:57;22.90;38.40
61374;DHT22;47242;48.158;-1.586;2023-04-24T09:34:24;22.80;39.50
61374;DHT22;47242;48.158;-1.586;2023-04-24T09:36:50;22.80;38.60
61374;DHT22;47242;48.158;-1.586;2023-04-24T09:39:17;22.80;38.50
61374;DHT22;47242;48.158;-1.586;2023-04-24T09:41:54;22.90;37.90
61374;DHT22;47242;48.158;-1.586;2023-04-24T09:44:26;22.40;37.70
61374;DHT22;47242;48.158;-1.586;2023-04-24T09:46:54;23.00;36.80
61374;DHT22;47242;48.158;-1.586;2023-04-24T09:49:23;23.60;36.20
61374;DHT22;47242;48.158;-1.586;2023-04-24T09:51:49;24.70;36.70
61374;DHT22;47242;48.158;-1.586;2023-04-24T09:54:19;23.80;36.50
61374;DHT22;47242;48.158;-1.586;2023-04-24T09:56:50;23.10;38.00
61374;DHT22;47242;48.158;-1.586;2023-04-24T09:59:18;22.30;39.90
61374;DHT22;47242;48.158;-1.586;2023-04-24T10:01:45;21.50;39.80
61374;DHT22;47242;48.158;-1.586;2023-04-24T10:04:25;20.90;41.10
61374;DHT22;47242;48.158;-1.586;2023-04-24T10:06:52;20.30;41.20
61374;DHT22;47242;48.158;-1.586;2023-04-24T10:09:19;20.10;42.70
61374;DHT22;47242;48.158;-1.586;2023-04-24T10:11:47;20.00;44.10
61374;DHT22;47242;48.158;-1.586;2023-04-24T10:14:15;19.90;43.90
61374;DHT22;47242;48.158;-1.586;2023-04-24T10:16:42;20.10;43.70
61374;DHT22;47242;48.158;-1.586;2023-04-24T10:19:09;21.30;41.70
61374;DHT22;47242;48.158;-1.586;2023-04-24T10:21:36;22.10;39.00
61374;DHT22;47242;48.158;-1.586;2023-04-24T10:24:08;22.70;39.40
61374;DHT22;47242;48.158;-1.586;2023-04-24T10:26:35;22.70;38.80
61374;DHT22;47242;48.158;-1.586;2023-04-24T10:29:01;22.10;38.90
61374;DHT22;47242;48.158;-1.586;2023-04-24T10:31:30;21.60;39.80
61374;DHT22;47242;48.158;-1.586;2023-04-24T10:33:56;21.10;40.80
61374;DHT22;47242;48.158;-1.586;2023-04-24T10:36:23;20.80;41.00
61374;DHT22;47242;48.158;-1.586;2023-04-24T10:38:53;20.50;41.30
61374;DHT22;47242;48.158;-1.586;2023-04-24T10:41:20;20.10;40.60
61374;DHT22;47242;48.158;-1.586;2023-04-24T10:44:02;20.20;41.80
61374;DHT22;47242;48.158;-1.586;2023-04-24T10:46:30;20.20;41.50
61374;DHT22;47242;48.158;-1.586;2023-04-24T10:48:56;20.40;40.90
61374;DHT22;47242;48.158;-1.586;2023-04-24T10:51:52;20.50;41.50
61374;DHT22;47242;48.158;-1.586;2023-04-24T10:54:34;20.30;41.20
61374;DHT22;47242;48.158;-1.586;2023-04-24T10:59:45;20.00;42.40
61374;DHT22;47242;48.158;-1.586;2023-04-24T11:02:10;19.80;42.90
61374;DHT22;47242;48.158;-1.586;2023-04-24T11:04:36;20.00;43.10
61374;DHT22;47242;48.158;-1.586;2023-04-24T11:07:05;20.10;41.60
61374;DHT22;47242;48.158;-1.586;2023-04-24T11:09:31;20.10;41.90
61374;DHT22;47242;48.158;-1.586;2023-04-24T11:12:05;19.90;41.90
61374;DHT22;47242;48.158;-1.586;2023-04-24T11:17:31;19.10;43.60
61374;DHT22;47242;48.158;-1.586;2023-04-24T11:20:11;18.80;43.40
61374;DHT22;47242;48.158;-1.586;2023-04-24T11:22:41;18.70;44.10
61374;DHT22;47242;48.158;-1.586;2023-04-24T11:25:08;18.60;45.50
61374;DHT22;47242;48.158;-1.586;2023-04-24T11:27:44;18.60;45.80
61374;DHT22;47242;48.158;-1.586;2023-04-24T11:30:11;18.40;46.10
61374;DHT22;47242;48.158;-1.586;2023-04-24T11:32:41;18.30;45.80
61374;DHT22;47242;48.158;-1.586;2023-04-24T11:37:45;18.50;46.70
61374;DHT22;47242;48.158;-1.586;2023-04-24T11:40:13;18.60;46.90
61374;DHT22;47242;48.158;-1.586;2023-04-24T11:42:42;18.50;46.00
61374;DHT22;47242;48.158;-1.586;2023-04-24T11:45:09;18.50;45.80
61374;DHT22;47242;48.158;-1.586;2023-04-24T11:47:35;18.20;46.60
61374;DHT22;47242;48.158;-1.586;2023-04-24T11:50:01;18.30;46.70
61374;DHT22;47242;48.158;-1.586;2023-04-24T11:52:28;18.60;47.00
61374;DHT22;47242;48.158;-1.586;2023-04-24T11:54:54;18.90;46.80
61374;DHT22;47242;48.158;-1.586;2023-04-24T11:57:21;19.20;46.20
61374;DHT22;47242;48.158;-1.586;2023-04-24T11:59:47;19.30;45.70
61374;DHT22;47242;48.158;-1.586;2023-04-24T12:02:23;19.30;44.60
61374;DHT22;47242;48.158;-1.586;2023-04-24T12:04:49;19.60;44.60
61374;DHT22;47242;48.158;-1.586;2023-04-24T12:07:15;19.80;44.60
61374;DHT22;47242;48.158;-1.586;2023-04-24T12:09:57;19.90;44.10
61374;DHT22;47242;48.158;-1.586;2023-04-24T12:12:26;20.10;43.60
61374;DHT22;47242;48.158;-1.586;2023-04-24T12:14:56;20.10;42.60
61374;DHT22;47242;48.158;-1.586;2023-04-24T12:17:26;20.10;44.10
61374;DHT22;47242;48.158;-1.586;2023-04-24T12:19:56;19.90;43.80
61374;DHT22;47242;48.158;-1.586;2023-04-24T12:22:22;19.70;42.60
61374;DHT22;47242;48.158;-1.586;2023-04-24T12:25:09;19.50;42.80
61374;DHT22;47242;48.158;-1.586;2023-04-24T12:27:35;19.30;43.60
61374;DHT22;47242;48.158;-1.586;2023-04-24T12:30:05;19.30;44.10
61374;DHT22;47242;48.158;-1.586;2023-04-24T12:32:31;19.30;44.70
61374;DHT22;47242;48.158;-1.586;2023-04-24T12:34:57;19.40;44.60
61374;DHT22;47242;48.158;-1.586;2023-04-24T12:37:33;19.60;43.50
61374;DHT22;47242;48.158;-1.586;2023-04-24T12:40:09;19.60;43.40
61374;DHT22;47242;48.158;-1.586;2023-04-24T12:42:44;19.60;43.50
61374;DHT22;47242;48.158;-1.586;2023-04-24T12:45:10;19.50;42.90
61374;DHT22;47242;48.158;-1.586;2023-04-24T12:47:38;19.40;41.90
61374;DHT22;47242;48.158;-1.586;2023-04-24T12:50:04;19.40;43.20
61374;DHT22;47242;48.158;-1.586;2023-04-24T12:52:31;19.50;41.60
61374;DHT22;47242;48.158;-1.586;2023-04-24T12:54:59;19.50;41.80
61374;DHT22;47242;48.158;-1.586;2023-04-24T12:57:26;19.70;42.40
61374;DHT22;47242;48.158;-1.586;2023-04-24T12:59:56;20.00;42.80
61374;DHT22;47242;48.158;-1.586;2023-04-24T13:02:23;20.00;41.50
61374;DHT22;47242;48.158;-1.586;2023-04-24T13:04:49;20.00;43.30
61374;DHT22;47242;48.158;-1.586;2023-04-24T13:07:16;20.00;43.20
61374;DHT22;47242;48.158;-1.586;2023-04-24T13:09:42;19.90;42.50
61374;DHT22;47242;48.158;-1.586;2023-04-24T13:12:09;19.80;43.30
61374;DHT22;47242;48.158;-1.586;2023-04-24T13:14:36;19.70;44.30
61374;DHT22;47242;48.158;-1.586;2023-04-24T13:17:02;19.70;44.10
61374;DHT22;47242;48.158;-1.586;2023-04-24T13:19:28;19.60;43.60
61374;DHT22;47242;48.158;-1.586;2023-04-24T13:21:55;19.50;44.70
61374;DHT22;47242;48.158;-1.586;2023-04-24T13:24:22;19.40;43.50
61374;DHT22;47242;48.158;-1.586;2023-04-24T13:26:53;19.30;44.10
61374;DHT22;47242;48.158;-1.586;2023-04-24T13:29:19;19.30;44.40
61374;DHT22;47242;48.158;-1.586;2023-04-24T13:31:46;19.40;45.20
61374;DHT22;47242;48.158;-1.586;2023-04-24T13:34:13;19.40;44.70
61374;DHT22;47242;48.158;-1.586;2023-04-24T13:36:38;19.30;44.90
61374;DHT22;47242;48.158;-1.586;2023-04-24T13:39:05;19.30;44.30
61374;DHT22;47242;48.158;-1.586;2023-04-24T13:41:32;19.30;43.80
61374;DHT22;47242;48.158;-1.586;2023-04-24T13:43:58;19.30;44.70
61374;DHT22;47242;48.158;-1.586;2023-04-24T13:46:23;19.20;44.30
61374;DHT22;47242;48.158;-1.586;2023-04-24T13:48:49;19.10;44.30
61374;DHT22;47242;48.158;-1.586;2023-04-24T13:51:15;19.10;44.10
61374;DHT22;47242;48.158;-1.586;2023-04-24T13:53:40;19.30;44.00
61374;DHT22;47242;48.158;-1.586;2023-04-24T13:56:06;19.50;44.90
61374;DHT22;47242;48.158;-1.586;2023-04-24T13:58:32;19.50;44.40
61374;DHT22;47242;48.158;-1.586;2023-04-24T14:00:58;19.30;44.40
61374;DHT22;47242;48.158;-1.586;2023-04-24T14:03:23;19.30;44.00
61374;DHT22;47242;48.158;-1.586;2023-04-24T14:05:49;19.30;44.00
61374;DHT22;47242;48.158;-1.586;2023-04-24T14:08:15;19.40;44.70
61374;DHT22;47242;48.158;-1.586;2023-04-24T14:10:42;19.40;44.30
61374;DHT22;47242;48.158;-1.586;2023-04-24T14:13:08;19.30;44.80
61374;DHT22;47242;48.158;-1.586;2023-04-24T14:15:35;19.30;44.40
61374;DHT22;47242;48.158;-1.586;2023-04-24T14:18:02;19.20;44.40
61374;DHT22;47242;48.158;-1.586;2023-04-24T14:20:28;19.10;44.70
61374;DHT22;47242;48.158;-1.586;2023-04-24T14:22:54;18.90;45.40
61374;DHT22;47242;48.158;-1.586;2023-04-24T14:25:20;18.80;45.10
61374;DHT22;47242;48.158;-1.586;2023-04-24T14:27:45;18.80;45.40
61374;DHT22;47242;48.158;-1.586;2023-04-24T14:30:12;18.70;46.10
61374;DHT22;47242;48.158;-1.586;2023-04-24T14:32:39;18.50;46.70
61374;DHT22;47242;48.158;-1.586;2023-04-24T14:35:06;18.40;47.10
61374;DHT22;47242;48.158;-1.586;2023-04-24T14:37:32;18.30;47.80
61374;DHT22;47242;48.158;-1.586;2023-04-24T14:39:58;18.20;50.40
61374;DHT22;47242;48.158;-1.586;2023-04-24T14:42:23;17.90;52.30
61374;DHT22;47242;48.158;-1.586;2023-04-24T14:44:49;17.80;54.20
61374;DHT22;47242;48.158;-1.586;2023-04-24T14:47:16;17.70;55.30
61374;DHT22;47242;48.158;-1.586;2023-04-24T14:49:43;17.70;56.20
61374;DHT22;47242;48.158;-1.586;2023-04-24T14:52:09;17.70;57.20
61374;DHT22;47242;48.158;-1.586;2023-04-24T14:54:35;17.80;57.10
61374;DHT22;47242;48.158;-1.586;2023-04-24T14:57:01;18.00;57.40
61374;DHT22;47242;48.158;-1.586;2023-04-24T14:59:27;18.30;57.10
61374;DHT22;47242;48.158;-1.586;2023-04-24T15:01:53;18.30;57.40
61374;DHT22;47242;48.158;-1.586;2023-04-24T15:04:23;18.30;57.00
61374;DHT22;47242;48.158;-1.586;2023-04-24T15:06:54;18.30;57.70
61374;DHT22;47242;48.158;-1.586;2023-04-24T15:09:20;18.30;57.90
61374;DHT22;47242;48.158;-1.586;2023-04-24T15:11:47;18.40;57.80
61374;DHT22;47242;48.158;-1.586;2023-04-24T15:14:13;18.50;57.90
61374;DHT22;47242;48.158;-1.586;2023-04-24T15:16:38;18.50;58.40
61374;DHT22;47242;48.158;-1.586;2023-04-24T15:19:04;18.50;58.90
61374;DHT22;47242;48.158;-1.586;2023-04-24T15:21:30;18.50;59.80
61374;DHT22;47242;48.158;-1.586;2023-04-24T15:23:56;18.30;59.20
61374;DHT22;47242;48.158;-1.586;2023-04-24T15:26:23;18.10;59.70
61374;DHT22;47242;48.158;-1.586;2023-04-24T15:28:48;17.90;59.70
61374;DHT22;47242;48.158;-1.586;2023-04-24T15:31:14;17.90;59.60
61374;DHT22;47242;48.158;-1.586;2023-04-24T15:33:40;18.00;59.20
61374;DHT22;47242;48.158;-1.586;2023-04-24T15:36:06;18.30;59.90
61374;DHT22;47242;48.158;-1.586;2023-04-24T15:38:32;18.50;59.30
61374;DHT22;47242;48.158;-1.586;2023-04-24T15:40:57;18.60;59.40
61374;DHT22;47242;48.158;-1.586;2023-04-24T15:43:23;18.80;58.50
61374;DHT22;47242;48.158;-1.586;2023-04-24T15:45:49;18.50;56.00
61374;DHT22;47242;48.158;-1.586;2023-04-24T15:48:15;18.30;56.80
61374;DHT22;47242;48.158;-1.586;2023-04-24T15:50:41;18.20;57.20
61374;DHT22;47242;48.158;-1.586;2023-04-24T15:53:07;18.10;57.60
61374;DHT22;47242;48.158;-1.586;2023-04-24T15:55:33;17.90;57.80
61374;DHT22;47242;48.158;-1.586;2023-04-24T15:57:59;17.70;57.70
61374;DHT22;47242;48.158;-1.586;2023-04-24T16:00:25;17.40;57.70
61374;DHT22;47242;48.158;-1.586;2023-04-24T16:02:53;17.40;57.70
61374;DHT22;47242;48.158;-1.586;2023-04-24T16:05:18;17.40;58.40
61374;DHT22;47242;48.158;-1.586;2023-04-24T16:07:44;17.50;58.90
61374;DHT22;47242;48.158;-1.586;2023-04-24T16:10:10;17.50;58.70
61374;DHT22;47242;48.158;-1.586;2023-04-24T16:12:36;17.50;58.40
61374;DHT22;47242;48.158;-1.586;2023-04-24T16:15:01;17.40;60.00
61374;DHT22;47242;48.158;-1.586;2023-04-24T16:17:28;17.50;60.70
61374;DHT22;47242;48.158;-1.586;2023-04-24T16:19:53;17.50;59.20
61374;DHT22;47242;48.158;-1.586;2023-04-24T16:22:19;17.70;58.20
61374;DHT22;47242;48.158;-1.586;2023-04-24T16:24:45;17.70;57.60
61374;DHT22;47242;48.158;-1.586;2023-04-24T16:27:13;17.70;56.40
61374;DHT22;47242;48.158;-1.586;2023-04-24T16:29:39;17.70;54.90
61374;DHT22;47242;48.158;-1.586;2023-04-24T16:32:04;17.70;55.00
61374;DHT22;47242;48.158;-1.586;2023-04-24T16:34:30;17.50;56.50
61374;DHT22;47242;48.158;-1.586;2023-04-24T16:36:56;17.30;56.60
61374;DHT22;47242;48.158;-1.586;2023-04-24T16:39:22;17.20;57.20
61374;DHT22;47242;48.158;-1.586;2023-04-24T16:41:47;17.00;57.90
61374;DHT22;47242;48.158;-1.586;2023-04-24T16:44:14;16.90;58.20
61374;DHT22;47242;48.158;-1.586;2023-04-24T16:46:40;16.80;58.50
61374;DHT22;47242;48.158;-1.586;2023-04-24T16:49:06;16.80;58.50
61374;DHT22;47242;48.158;-1.586;2023-04-24T16:51:31;16.70;58.90
61374;DHT22;47242;48.158;-1.586;2023-04-24T16:53:58;16.70;59.20
61374;DHT22;47242;48.158;-1.586;2023-04-24T16:56:23;16.80;60.20
61374;DHT22;47242;48.158;-1.586;2023-04-24T16:58:49;16.90;59.50
61374;DHT22;47242;48.158;-1.586;2023-04-24T17:01:15;17.10;59.00
61374;DHT22;47242;48.158;-1.586;2023-04-24T17:03:41;17.10;58.30
61374;DHT22;47242;48.158;-1.586;2023-04-24T17:06:06;17.00;58.30
61374;DHT22;47242;48.158;-1.586;2023-04-24T17:08:32;17.00;58.50
61374;DHT22;47242;48.158;-1.586;2023-04-24T17:10:58;16.90;58.70
61374;DHT22;47242;48.158;-1.586;2023-04-24T17:13:23;16.80;59.00
61374;DHT22;47242;48.158;-1.586;2023-04-24T17:15:49;16.80;59.10
61374;DHT22;47242;48.158;-1.586;2023-04-24T17:18:15;16.80;59.50
61374;DHT22;47242;48.158;-1.586;2023-04-24T17:20:41;16.70;59.50
61374;DHT22;47242;48.158;-1.586;2023-04-24T17:23:07;16.70;59.70
61374;DHT22;47242;48.158;-1.586;2023-04-24T17:25:36;16.70;59.60
61374;DHT22;47242;48.158;-1.586;2023-04-24T17:28:02;16.50;59.50
61374;DHT22;47242;48.158;-1.586;2023-04-24T17:30:28;16.50;59.60
61374;DHT22;47242;48.158;-1.586;2023-04-24T17:32:54;16.50;59.80
61374;DHT22;47242;48.158;-1.586;2023-04-24T17:35:19;16.40;60.00
61374;DHT22;47242;48.158;-1.586;2023-04-24T17:37:45;16.40;60.10
61374;DHT22;47242;48.158;-1.586;2023-04-24T17:40:11;16.30;60.90
61374;DHT22;47242;48.158;-1.586;2023-04-24T17:42:37;16.30;60.90
61374;DHT22;47242;48.158;-1.586;2023-04-24T17:45:06;16.30;61.00
61374;DHT22;47242;48.158;-1.586;2023-04-24T17:47:31;16.30;61.10
61374;DHT22;47242;48.158;-1.586;2023-04-24T17:49:57;16.30;61.00
61374;DHT22;47242;48.158;-1.586;2023-04-24T17:52:23;16.20;61.30
61374;DHT22;47242;48.158;-1.586;2023-04-24T17:54:48;16.20;61.50
61374;DHT22;47242;48.158;-1.586;2023-04-24T17:57:14;16.20;62.30
61374;DHT22;47242;48.158;-1.586;2023-04-24T17:59:40;16.20;62.40
61374;DHT22;47242;48.158;-1.586;2023-04-24T18:02:06;16.10;62.60
61374;DHT22;47242;48.158;-1.586;2023-04-24T18:04:31;16.10;63.10
61374;DHT22;47242;48.158;-1.586;2023-04-24T18:06:57;16.00;64.20
61374;DHT22;47242;48.158;-1.586;2023-04-24T18:09:23;16.00;65.00
61374;DHT22;47242;48.158;-1.586;2023-04-24T18:11:48;16.00;64.50
61374;DHT22;47242;48.158;-1.586;2023-04-24T18:14:14;16.10;64.70
61374;DHT22;47242;48.158;-1.586;2023-04-24T18:16:40;16.10;64.80
61374;DHT22;47242;48.158;-1.586;2023-04-24T18:19:06;16.10;65.10
61374;DHT22;47242;48.158;-1.586;2023-04-24T18:21:31;16.00;65.00
61374;DHT22;47242;48.158;-1.586;2023-04-24T18:23:57;16.00;65.40
61374;DHT22;47242;48.158;-1.586;2023-04-24T18:26:25;16.00;65.00
61374;DHT22;47242;48.158;-1.586;2023-04-24T18:28:51;16.00;64.60
61374;DHT22;47242;48.158;-1.586;2023-04-24T18:31:16;15.90;65.40
61374;DHT22;47242;48.158;-1.586;2023-04-24T18:33:42;15.80;65.40
61374;DHT22;47242;48.158;-1.586;2023-04-24T18:36:08;15.80;65.60
61374;DHT22;47242;48.158;-1.586;2023-04-24T18:38:34;15.80;65.70
61374;DHT22;47242;48.158;-1.586;2023-04-24T18:41:01;15.70;65.90
61374;DHT22;47242;48.158;-1.586;2023-04-24T18:43:27;15.60;65.90
61374;DHT22;47242;48.158;-1.586;2023-04-24T18:45:52;15.40;65.80
61374;DHT22;47242;48.158;-1.586;2023-04-24T18:48:18;15.30;66.00
61374;DHT22;47242;48.158;-1.586;2023-04-24T18:50:44;15.30;66.00
61374;DHT22;47242;48.158;-1.586;2023-04-24T18:53:09;15.30;66.30
61374;DHT22;47242;48.158;-1.586;2023-04-24T18:55:38;15.20;66.40
61374;DHT22;47242;48.158;-1.586;2023-04-24T18:58:05;15.10;66.30
61374;DHT22;47242;48.158;-1.586;2023-04-24T19:00:31;15.20;66.10
61374;DHT22;47242;48.158;-1.586;2023-04-24T19:02:56;15.10;66.20
61374;DHT22;47242;48.158;-1.586;2023-04-24T19:05:22;15.00;66.30
61374;DHT22;47242;48.158;-1.586;2023-04-24T19:07:48;14.90;66.30
61374;DHT22;47242;48.158;-1.586;2023-04-24T19:10:14;14.90;66.20
61374;DHT22;47242;48.158;-1.586;2023-04-24T19:12:41;14.80;66.50
61374;DHT22;47242;48.158;-1.586;2023-04-24T19:15:07;14.80;66.20
61374;DHT22;47242;48.158;-1.586;2023-04-24T19:17:36;14.80;66.10
61374;DHT22;47242;48.158;-1.586;2023-04-24T19:20:02;14.80;66.10
61374;DHT22;47242;48.158;-1.586;2023-04-24T19:22:27;14.70;66.40
61374;DHT22;47242;48.158;-1.586;2023-04-24T19:24:54;14.60;66.40
61374;DHT22;47242;48.158;-1.586;2023-04-24T19:27:23;14.60;66.40
61374;DHT22;47242;48.158;-1.586;2023-04-24T19:29:48;14.50;66.40
61374;DHT22;47242;48.158;-1.586;2023-04-24T19:32:16;14.50;66.60
61374;DHT22;47242;48.158;-1.586;2023-04-24T19:34:42;14.40;67.20
61374;DHT22;47242;48.158;-1.586;2023-04-24T19:37:08;14.30;67.00
61374;DHT22;47242;48.158;-1.586;2023-04-24T19:39:33;14.30;67.40
61374;DHT22;47242;48.158;-1.586;2023-04-24T19:41:59;14.30;67.30
61374;DHT22;47242;48.158;-1.586;2023-04-24T19:44:27;14.20;67.40
61374;DHT22;47242;48.158;-1.586;2023-04-24T19:46:52;14.30;67.20
61374;DHT22;47242;48.158;-1.586;2023-04-24T19:49:18;14.20;67.40
61374;DHT22;47242;48.158;-1.586;2023-04-24T19:51:44;14.30;67.10